Terminal Aerodrome Forecast
Issued by NWS Shreveport, LA

Home | Current Version | Previous Version | Text Only | Print | Product List | Glossary On
Versions: 1 2 3 4 5 6 7 8 9 10 11 12 13 14 15 16 17 18
000
FTUS44 KSHV 011133
TAFTYR
TAF
KTYR 011133Z 0112/0212 22010KT P6SM SCT008 SCT250
      TEMPO 0113/0115 BKN010
     FM011500 22012KT P6SM SCT015 SCT250
      TEMPO 0115/0116 BKN015
     FM011600 22012G20KT P6SM SCT035 SCT250
     FM020000 18009KT P6SM SCT250=

USA.gov is the U.S. government's official web portal to all federal, state and local government web resources and services.